Time;durP1;ratioP1;P1;durP2;ratioP2;P2;SDS_P1;SDS_P2;PMS_P1;PMS_P2;Temp;Humidity;BMP_temperature;BMP_pressure;BME280_temperature;BME280_humidity;BME280_pressure;Samples;Min_cycle;Max_cycle;Signal;HPM_P1;HPM_P2
2023/10/19 00:00:55;;;;;;;19.38;13.65;;;8.00;99.90;;;;;;5054079;28;20116;-79
2023/10/19 00:03:23;;;;;;;19.63;14.50;;;8.00;99.90;;;;;;5053619;28;20065;-80
2023/10/19 00:05:49;;;;;;;21.50;14.35;;;8.00;99.90;;;;;;5052349;28;20045;-79
2023/10/19 00:08:16;;;;;;;20.23;14.75;;;8.00;99.90;;;;;;5052429;28;20033;-78
2023/10/19 00:10:44;;;;;;;21.65;14.15;;;7.90;99.90;;;;;;5052197;28;20056;-78
2023/10/19 00:13:13;;;;;;;20.77;14.98;;;8.00;99.90;;;;;;5052509;28;20045;-78
2023/10/19 00:15:47;;;;;;;21.75;14.98;;;7.90;99.90;;;;;;5052044;28;20037;-79
2023/10/19 00:23:13;;;;;;;20.70;15.18;;;7.90;99.90;;;;;;5052085;28;20046;-79
2023/10/19 00:25:44;;;;;;;21.13;14.73;;;7.90;99.90;;;;;;5035552;28;20114;-80
2023/10/19 00:28:12;;;;;;;22.08;16.15;;;7.90;99.90;;;;;;5051668;28;20041;-78
2023/10/19 00:30:39;;;;;;;19.33;14.90;;;7.90;99.90;;;;;;5052095;28;20049;-79
2023/10/19 00:33:15;;;;;;;25.13;16.55;;;7.90;99.90;;;;;;5051659;28;20055;-79
2023/10/19 00:35:47;;;;;;;21.67;15.15;;;7.90;99.90;;;;;;5035220;28;20124;-79
2023/10/19 00:41:12;;;;;;;20.75;15.75;;;7.90;99.90;;;;;;5052573;28;20103;-79
2023/10/19 00:43:43;;;;;;;22.38;16.00;;;7.90;99.90;;;;;;5051969;28;20511;-78
2023/10/19 00:48:48;;;;;;;22.30;16.17;;;7.90;99.90;;;;;;5051969;28;20124;-79
2023/10/19 00:54:08;;;;;;;21.15;15.73;;;7.90;99.90;;;;;;5052952;28;20049;-78
2023/10/19 00:56:34;;;;;;;22.45;16.40;;;7.90;99.90;;;;;;5051970;28;20043;-78
2023/10/19 00:59:12;;;;;;;23.23;16.05;;;7.90;99.90;;;;;;5051509;28;20037;-79
2023/10/19 01:01:44;;;;;;;21.30;16.02;;;7.90;99.90;;;;;;5050943;28;20041;-79
2023/10/19 01:04:14;;;;;;;22.35;16.05;;;8.00;99.90;;;;;;5032562;28;20049;-80
2023/10/19 01:06:44;;;;;;;24.40;17.13;;;7.90;99.90;;;;;;5039243;28;20051;-80
2023/10/19 01:09:20;;;;;;;23.67;17.77;;;7.90;99.90;;;;;;5050932;28;20041;-81
2023/10/19 01:11:45;;;;;;;22.55;16.58;;;8.00;99.90;;;;;;5051324;28;20067;-80
2023/10/19 01:14:27;;;;;;;22.02;16.15;;;7.90;99.90;;;;;;5051817;28;20044;-79
2023/10/19 01:16:56;;;;;;;25.52;17.52;;;7.90;99.90;;;;;;5051485;28;20037;-79
2023/10/19 01:19:27;;;;;;;23.52;16.73;;;7.90;99.90;;;;;;5051064;28;20041;-79
2023/10/19 01:21:59;;;;;;;22.80;17.92;;;8.00;99.90;;;;;;5034744;28;20041;-79
2023/10/19 01:24:42;;;;;;;22.98;16.17;;;8.00;99.90;;;;;;5051402;28;20049;-78
2023/10/19 01:27:08;;;;;;;23.90;17.40;;;7.90;99.90;;;;;;5050685;28;20033;-78
2023/10/19 01:29:37;;;;;;;23.48;18.10;;;8.00;99.90;;;;;;5034421;28;20504;-79
2023/10/19 01:32:06;;;;;;;21.60;16.52;;;7.90;99.90;;;;;;5051650;28;20040;-80
2023/10/19 01:34:33;;;;;;;23.02;17.13;;;8.00;99.90;;;;;;5051511;28;20400;-79
2023/10/19 01:37:03;;;;;;;26.10;17.23;;;7.90;99.90;;;;;;5052183;28;20044;-80
2023/10/19 01:39:30;;;;;;;25.45;17.17;;;7.90;99.90;;;;;;5050235;28;20045;-78
2023/10/19 01:41:59;;;;;;;22.83;17.27;;;7.90;99.90;;;;;;5051204;28;20120;-79
2023/10/19 01:44:25;;;;;;;24.45;17.05;;;7.90;99.90;;;;;;5050977;28;20501;-81
2023/10/19 01:46:50;;;;;;;22.52;17.30;;;8.00;99.90;;;;;;5050863;28;20056;-79
2023/10/19 01:49:30;;;;;;;22.80;17.42;;;7.90;99.90;;;;;;5054597;28;20083;-81
2023/10/19 01:51:55;;;;;;;24.70;17.52;;;7.90;99.90;;;;;;5056314;28;20041;-78
2023/10/19 01:54:25;;;;;;;22.70;16.58;;;7.90;99.90;;;;;;5055481;28;20032;-78
2023/10/19 01:56:54;;;;;;;23.08;16.85;;;7.90;99.90;;;;;;5055129;28;20123;-77
2023/10/19 01:59:27;;;;;;;21.75;16.40;;;7.90;99.90;;;;;;5053699;28;20044;-78
2023/10/19 02:01:54;;;;;;;22.95;16.38;;;7.90;99.90;;;;;;5054531;28;20037;-79
2023/10/19 02:04:21;;;;;;;21.83;17.33;;;7.90;99.90;;;;;;5054102;28;20041;-77
2023/10/19 02:06:48;;;;;;;22.75;16.83;;;7.90;99.90;;;;;;5054236;28;20048;-79
2023/10/19 02:11:42;;;;;;;22.80;16.85;;;7.90;99.90;;;;;;5053818;28;20102;-77
2023/10/19 02:14:14;;;;;;;22.00;16.23;;;7.90;99.90;;;;;;5037794;28;20384;-82
2023/10/19 02:16:56;;;;;;;22.50;15.43;;;7.90;99.90;;;;;;5038417;28;20136;-78
2023/10/19 02:19:24;;;;;;;22.58;16.58;;;7.90;99.90;;;;;;5053356;28;20407;-78
2023/10/19 02:21:52;;;;;;;21.25;15.88;;;7.90;99.90;;;;;;5053269;28;20492;-78
2023/10/19 02:24:18;;;;;;;20.52;15.75;;;7.90;99.90;;;;;;5054127;28;20492;-79
2023/10/19 02:26:46;;;;;;;20.00;15.98;;;7.90;99.90;;;;;;5054859;28;20044;-78
2023/10/19 02:29:12;;;;;;;18.38;14.32;;;7.90;99.90;;;;;;5054200;28;20127;-80
2023/10/19 02:31:42;;;;;;;20.55;14.48;;;7.90;99.90;;;;;;5055025;28;20033;-79
2023/10/19 02:34:14;;;;;;;17.73;13.77;;;7.90;99.90;;;;;;5037817;28;20346;-80
2023/10/19 02:36:41;;;;;;;19.83;14.07;;;7.90;99.90;;;;;;5054818;28;20041;-79
2023/10/19 02:39:13;;;;;;;18.48;14.82;;;7.90;99.90;;;;;;5053948;28;20057;-79
2023/10/19 02:41:43;;;;;;;19.05;14.25;;;7.90;99.90;;;;;;5037825;28;20037;-80
2023/10/19 02:46:43;;;;;;;17.40;13.25;;;7.60;99.90;;;;;;5054008;28;20044;-79
2023/10/19 02:49:11;;;;;;;17.23;13.40;;;7.90;99.90;;;;;;5053559;28;20032;-78
2023/10/19 02:51:45;;;;;;;17.33;14.07;;;7.90;99.90;;;;;;5054462;28;20045;-79
2023/10/19 02:54:19;;;;;;;16.23;13.73;;;7.90;99.90;;;;;;5053788;28;20037;-79
2023/10/19 02:56:52;;;;;;;17.98;13.73;;;7.90;99.90;;;;;;5054855;28;20056;-80
2023/10/19 02:59:22;;;;;;;16.85;13.95;;;7.90;99.90;;;;;;5053187;28;20041;-79
2023/10/19 03:02:00;;;;;;;17.95;13.63;;;7.90;99.90;;;;;;5053831;28;20554;-79
2023/10/19 03:04:28;;;;;;;17.00;13.77;;;7.90;99.90;;;;;;5053579;28;20033;-79
2023/10/19 03:06:56;;;;;;;17.35;13.70;;;7.90;99.90;;;;;;5053302;28;20037;-79
2023/10/19 03:11:54;;;;;;;17.08;13.55;;;7.90;99.90;;;;;;5053360;28;20127;-79
2023/10/19 03:14:20;;;;;;;16.42;13.00;;;7.90;99.90;;;;;;5053838;28;20049;-81
2023/10/19 03:16:46;;;;;;;16.90;13.15;;;7.90;99.90;;;;;;5053488;28;20116;-80
2023/10/19 03:19:14;;;;;;;15.02;12.02;;;7.90;99.90;;;;;;5053407;28;20041;-80
2023/10/19 03:21:43;;;;;;;15.60;13.27;;;7.90;99.90;;;;;;5053896;28;20139;-79
2023/10/19 03:24:15;;;;;;;16.02;12.32;;;7.90;99.90;;;;;;5053465;28;20440;-79
2023/10/19 03:26:48;;;;;;;14.70;11.93;;;7.90;99.90;;;;;;5053228;28;20045;-81
2023/10/19 03:29:15;;;;;;;15.75;12.05;;;7.90;99.90;;;;;;5053039;28;20412;-79
2023/10/19 03:31:44;;;;;;;14.23;11.80;;;7.90;99.90;;;;;;5053133;28;20465;-80
2023/10/19 03:34:12;;;;;;;15.57;12.50;;;7.90;99.90;;;;;;5053066;28;20518;-78
2023/10/19 03:36:38;;;;;;;16.17;12.15;;;7.90;99.90;;;;;;5052926;28;20492;-79
2023/10/19 03:39:13;;;;;;;14.20;11.88;;;7.90;99.90;;;;;;5053198;28;20033;-81
2023/10/19 03:41:42;;;;;;;14.80;12.38;;;7.90;99.90;;;;;;5052543;28;20040;-80
2023/10/19 03:44:13;;;;;;;15.35;12.48;;;7.90;99.90;;;;;;5053489;28;20037;-80
2023/10/19 03:46:52;;;;;;;15.35;12.30;;;7.90;99.90;;;;;;5053484;28;20163;-81
2023/10/19 03:49:21;;;;;;;15.23;11.98;;;8.00;99.90;;;;;;5052133;28;20068;-80
2023/10/19 03:54:32;;;;;;;14.45;12.10;;;8.00;99.90;;;;;;5054229;28;20040;-78
2023/10/19 03:57:02;;;;;;;16.70;11.70;;;8.00;99.90;;;;;;5053152;28;20061;-79
2023/10/19 03:59:31;;;;;;;12.88;11.00;;;8.00;99.90;;;;;;5052615;28;20051;-81
2023/10/19 04:01:59;;;;;;;14.48;11.65;;;8.00;99.90;;;;;;5053639;28;20080;-80
2023/10/19 04:04:25;;;;;;;14.32;11.45;;;8.00;99.90;;;;;;5053172;28;20407;-80
2023/10/19 04:06:57;;;;;;;13.95;10.98;;;8.00;99.90;;;;;;5053069;28;20041;-82
2023/10/19 04:09:23;;;;;;;15.93;11.40;;;8.00;99.90;;;;;;5052598;28;20044;-79
2023/10/19 04:11:48;;;;;;;13.48;11.60;;;8.00;99.90;;;;;;5052835;28;20560;-82
2023/10/19 04:14:15;;;;;;;13.43;10.73;;;8.00;99.90;;;;;;5052146;28;20045;-79
2023/10/19 04:16:43;;;;;;;13.05;10.63;;;8.00;99.90;;;;;;5052441;28;20067;-80
2023/10/19 04:19:13;;;;;;;14.07;11.30;;;8.00;99.90;;;;;;5052231;28;20037;-80
2023/10/19 04:21:39;;;;;;;13.80;11.20;;;8.00;99.90;;;;;;5052943;28;20052;-82
2023/10/19 04:24:08;;;;;;;13.57;10.80;;;8.00;99.90;;;;;;5052667;28;20044;-80
2023/10/19 04:26:37;;;;;;;19.85;10.73;;;8.10;99.90;;;;;;5052823;28;20040;-80
2023/10/19 04:29:17;;;;;;;12.75;10.23;;;8.00;99.90;;;;;;5052005;28;20522;-80
2023/10/19 04:31:49;;;;;;;12.20;10.38;;;8.00;99.90;;;;;;5052257;28;20044;-81
2023/10/19 04:34:20;;;;;;;11.80;9.75;;;8.00;99.90;;;;;;5052449;28;20045;-81
2023/10/19 04:36:46;;;;;;;11.75;9.73;;;8.10;99.90;;;;;;5034787;28;20055;-81
2023/10/19 04:39:13;;;;;;;11.50;9.63;;;8.00;99.90;;;;;;5050556;28;20045;-81
2023/10/19 04:41:44;;;;;;;12.50;9.88;;;8.10;99.90;;;;;;5035756;28;20508;-83
2023/10/19 04:44:09;;;;;;;11.98;9.55;;;8.10;99.90;;;;;;5052349;28;20049;-80
2023/10/19 04:46:35;;;;;;;10.75;9.10;;;8.00;99.90;;;;;;5052120;28;20095;-81
2023/10/19 04:49:00;;;;;;;10.13;8.82;;;8.10;99.90;;;;;;5052397;28;20045;-81
2023/10/19 04:51:28;;;;;;;10.40;9.10;;;8.10;99.90;;;;;;5052423;28;20045;-81
2023/10/19 04:53:55;;;;;;;10.25;8.75;;;8.10;99.90;;;;;;5052035;28;20071;-81
2023/10/19 04:56:21;;;;;;;9.93;8.35;;;8.10;99.90;;;;;;5051815;28;20025;-81
2023/10/19 04:58:47;;;;;;;9.40;7.88;;;8.10;99.90;;;;;;5052180;28;20065;-80
2023/10/19 05:01:13;;;;;;;10.52;8.65;;;8.10;99.90;;;;;;5034839;28;20056;-80
2023/10/19 05:03:38;;;;;;;9.57;7.72;;;8.10;99.90;;;;;;5052389;28;20071;-80
2023/10/19 05:06:04;;;;;;;9.65;7.70;;;8.10;99.90;;;;;;5052706;28;20032;-81
2023/10/19 05:08:32;;;;;;;9.57;7.55;;;8.10;99.90;;;;;;5053053;28;20063;-78
2023/10/19 05:10:59;;;;;;;8.57;7.22;;;8.10;99.90;;;;;;5052224;28;20056;-80
2023/10/19 05:13:25;;;;;;;7.88;6.68;;;8.10;99.90;;;;;;5052243;28;20037;-78
2023/10/19 05:15:53;;;;;;;7.95;6.93;;;8.10;99.90;;;;;;5052169;28;20056;-80
2023/10/19 05:18:19;;;;;;;7.85;6.82;;;8.10;99.90;;;;;;5052511;28;20119;-82
2023/10/19 05:20:46;;;;;;;7.43;6.40;;;8.10;99.90;;;;;;5052483;28;20556;-80
2023/10/19 05:23:13;;;;;;;7.75;6.38;;;8.10;99.90;;;;;;5053492;28;20121;-83
2023/10/19 05:25:39;;;;;;;6.90;5.88;;;8.10;99.90;;;;;;5055763;28;20041;-80
2023/10/19 05:28:05;;;;;;;7.15;6.07;;;8.20;99.90;;;;;;5056613;28;20036;-79
2023/10/19 05:30:35;;;;;;;8.05;6.35;;;8.10;99.90;;;;;;5055421;28;20045;-83
2023/10/19 05:33:03;;;;;;;7.05;6.30;;;8.10;99.90;;;;;;5039372;28;20041;-80
2023/10/19 05:35:30;;;;;;;7.30;6.05;;;8.20;99.90;;;;;;5054422;28;20048;-82
2023/10/19 05:37:56;;;;;;;7.03;5.47;;;8.10;99.90;;;;;;5055128;28;20119;-80
2023/10/19 05:40:29;;;;;;;6.53;5.57;;;8.10;99.90;;;;;;5055853;28;20059;-80
2023/10/19 05:42:56;;;;;;;6.50;5.80;;;8.10;99.90;;;;;;5056366;28;20101;-82
2023/10/19 05:45:22;;;;;;;6.75;5.55;;;8.20;99.90;;;;;;5056744;28;20041;-81
2023/10/19 05:47:48;;;;;;;6.80;6.03;;;8.20;99.90;;;;;;5055784;28;20539;-80
2023/10/19 05:50:16;;;;;;;7.15;5.95;;;8.20;99.90;;;;;;5055928;28;20048;-80
2023/10/19 05:52:43;;;;;;;7.40;6.00;;;8.10;99.90;;;;;;5055734;28;20033;-80
2023/10/19 05:55:10;;;;;;;6.45;5.80;;;8.20;99.90;;;;;;5055083;28;20547;-79
2023/10/19 05:57:40;;;;;;;7.10;5.82;;;8.20;99.90;;;;;;5056007;28;20281;-81
2023/10/19 06:00:12;;;;;;;6.47;5.45;;;8.20;99.90;;;;;;5055199;28;20079;-79
2023/10/19 06:02:39;;;;;;;7.45;6.00;;;8.20;99.90;;;;;;5055532;28;20067;-79
2023/10/19 06:05:05;;;;;;;5.75;4.97;;;8.20;99.90;;;;;;5055303;28;20044;-81
2023/10/19 06:07:31;;;;;;;5.65;4.90;;;8.20;99.90;;;;;;5038962;28;20385;-79
2023/10/19 06:09:57;;;;;;;5.93;5.32;;;8.20;99.90;;;;;;5055620;28;20048;-80
2023/10/19 06:12:22;;;;;;;6.32;4.85;;;8.20;99.90;;;;;;5055148;28;20154;-80
2023/10/19 06:14:48;;;;;;;5.22;4.40;;;8.20;99.90;;;;;;5057001;28;20584;-80
2023/10/19 06:17:18;;;;;;;5.10;4.40;;;8.20;99.90;;;;;;5039041;28;20041;-79
2023/10/19 06:19:45;;;;;;;5.97;4.85;;;8.20;99.90;;;;;;5053957;28;20079;-81
2023/10/19 06:22:12;;;;;;;5.10;4.60;;;8.20;99.90;;;;;;5054142;28;20052;-80
2023/10/19 06:24:37;;;;;;;6.30;5.38;;;8.20;99.90;;;;;;5054272;28;20045;-81
2023/10/19 06:27:04;;;;;;;5.47;4.25;;;8.20;99.90;;;;;;5054918;28;20128;-80
2023/10/19 06:29:29;;;;;;;4.68;4.13;;;8.20;99.90;;;;;;5053677;28;20446;-81
2023/10/19 06:31:55;;;;;;;5.40;4.65;;;8.20;99.90;;;;;;5053585;28;20040;-80
2023/10/19 06:34:20;;;;;;;5.13;4.38;;;8.20;99.90;;;;;;5053071;28;20441;-80
2023/10/19 06:36:46;;;;;;;5.75;4.82;;;8.30;99.90;;;;;;5055184;28;20521;-81
2023/10/19 06:39:13;;;;;;;5.15;4.63;;;8.20;99.90;;;;;;5053663;28;20116;-81
2023/10/19 06:41:39;;;;;;;5.30;4.78;;;8.20;99.90;;;;;;5054119;28;20060;-80
2023/10/19 06:44:05;;;;;;;5.45;4.65;;;8.30;99.90;;;;;;5038803;28;20123;-80
2023/10/19 06:46:31;;;;;;;6.13;4.90;;;8.30;99.90;;;;;;5053788;28;20569;-80
2023/10/19 06:49:00;;;;;;;5.47;4.60;;;8.30;99.90;;;;;;5053974;28;20392;-80
2023/10/19 06:51:26;;;;;;;5.38;4.38;;;8.30;99.90;;;;;;5053889;28;20045;-79
2023/10/19 06:53:52;;;;;;;4.85;4.22;;;8.30;99.90;;;;;;5054704;28;20075;-78
2023/10/19 06:56:18;;;;;;;5.45;4.35;;;8.30;99.90;;;;;;5054859;28;20036;-81
2023/10/19 06:58:44;;;;;;;4.90;4.22;;;8.30;99.90;;;;;;5054554;28;20049;-81
2023/10/19 07:01:10;;;;;;;5.00;4.40;;;8.30;99.90;;;;;;5053807;28;20140;-80
2023/10/19 07:03:36;;;;;;;5.72;4.47;;;8.30;99.90;;;;;;5056288;28;20041;-81
2023/10/19 07:06:03;;;;;;;5.45;4.30;;;8.40;99.90;;;;;;5054601;28;20064;-81
2023/10/19 07:08:29;;;;;;;4.93;4.13;;;8.40;99.90;;;;;;5055114;28;20469;-81
2023/10/19 07:10:55;;;;;;;4.78;3.92;;;8.40;99.90;;;;;;5054087;28;20116;-80
2023/10/19 07:13:21;;;;;;;4.63;4.13;;;8.40;99.90;;;;;;5053499;28;20365;-81
2023/10/19 07:15:49;;;;;;;4.45;3.97;;;8.40;99.90;;;;;;5051440;28;20094;-80
2023/10/19 07:18:15;;;;;;;4.70;4.10;;;8.40;99.90;;;;;;5052095;28;20033;-82
2023/10/19 07:20:42;;;;;;;4.88;4.03;;;8.40;99.90;;;;;;5036373;28;20052;-80
2023/10/19 07:23:26;;;;;;;4.32;3.83;;;8.40;99.90;;;;;;5053114;28;20451;-80
2023/10/19 07:25:54;;;;;;;4.95;3.83;;;8.40;99.90;;;;;;5053164;28;20091;-79
2023/10/19 07:28:21;;;;;;;4.88;3.65;;;8.40;99.90;;;;;;5036373;28;20033;-80
2023/10/19 07:30:47;;;;;;;3.80;3.40;;;8.40;99.90;;;;;;5052538;28;20112;-82
2023/10/19 07:33:17;;;;;;;5.13;3.45;;;8.40;99.90;;;;;;5053379;28;20080;-80
2023/10/19 07:35:46;;;;;;;4.28;3.67;;;8.40;99.90;;;;;;5052744;28;20041;-79
2023/10/19 07:38:13;;;;;;;4.80;3.80;;;8.50;99.90;;;;;;5054013;28;20041;-80
2023/10/19 07:40:39;;;;;;;4.35;3.33;;;8.50;99.90;;;;;;5052428;28;20045;-79
2023/10/19 07:43:04;;;;;;;4.10;3.70;;;8.40;99.90;;;;;;5052553;28;20048;-79
2023/10/19 07:45:31;;;;;;;3.80;3.38;;;8.50;99.90;;;;;;5052303;28;20433;-79
2023/10/19 07:47:58;;;;;;;4.40;3.88;;;8.50;99.90;;;;;;5050788;28;20408;-81
2023/10/19 07:50:23;;;;;;;4.40;3.53;;;8.50;99.90;;;;;;5051489;28;20045;-80
2023/10/19 07:52:53;;;;;;;3.90;3.45;;;8.50;99.90;;;;;;5052567;28;20064;-80
2023/10/19 07:55:24;;;;;;;3.90;3.50;;;8.50;99.90;;;;;;5053003;28;20049;-79
2023/10/19 07:57:50;;;;;;;4.05;3.65;;;8.50;99.90;;;;;;5035499;28;20033;-79
2023/10/19 08:00:17;;;;;;;3.80;3.30;;;8.50;99.90;;;;;;5052113;28;20075;-79
2023/10/19 08:02:46;;;;;;;4.00;3.60;;;8.50;99.90;;;;;;5052230;28;20044;-79
2023/10/19 08:05:18;;;;;;;4.30;3.90;;;8.50;99.90;;;;;;5052151;28;20036;-79
2023/10/19 08:07:46;;;;;;;4.65;4.05;;;8.50;99.90;;;;;;5052105;28;20041;-79
2023/10/19 08:10:13;;;;;;;3.92;3.53;;;8.50;99.90;;;;;;5052428;28;20040;-80
2023/10/19 08:12:42;;;;;;;4.68;3.90;;;8.60;99.90;;;;;;5051856;28;20034;-80
2023/10/19 08:15:12;;;;;;;4.20;3.80;;;8.60;99.90;;;;;;5034827;28;20044;-79
2023/10/19 08:17:42;;;;;;;4.40;3.67;;;8.60;99.90;;;;;;5050374;28;20036;-79
2023/10/19 08:20:09;;;;;;;4.60;4.15;;;8.60;99.90;;;;;;5051418;28;20197;-80
2023/10/19 08:22:36;;;;;;;4.32;3.75;;;8.60;99.90;;;;;;5051772;28;20040;-80
2023/10/19 08:25:04;;;;;;;4.32;3.92;;;8.60;99.90;;;;;;5034581;28;20369;-80
2023/10/19 08:27:29;;;;;;;5.20;4.70;;;8.60;99.90;;;;;;5035364;28;20041;-79
2023/10/19 08:29:55;;;;;;;5.22;4.55;;;8.60;99.90;;;;;;5051897;28;20572;-80
2023/10/19 08:32:21;;;;;;;4.50;4.07;;;8.70;99.90;;;;;;5052082;28;20045;-78
2023/10/19 08:34:46;;;;;;;5.00;4.35;;;8.60;99.90;;;;;;5051753;28;20096;-81
2023/10/19 08:37:13;;;;;;;4.57;4.18;;;8.60;99.90;;;;;;5051913;28;20097;-80
2023/10/19 08:39:38;;;;;;;5.57;4.75;;;8.60;99.90;;;;;;5034580;28;20128;-81
2023/10/19 08:42:05;;;;;;;5.82;4.78;;;8.70;99.90;;;;;;5051927;28;20128;-80
2023/10/19 08:44:32;;;;;;;5.43;4.57;;;8.70;99.90;;;;;;5051717;28;20144;-80
2023/10/19 08:46:59;;;;;;;5.22;4.60;;;8.70;99.90;;;;;;5034953;28;20447;-79
2023/10/19 08:49:26;;;;;;;5.35;4.60;;;8.80;99.90;;;;;;5050860;28;20029;-81
2023/10/19 08:51:53;;;;;;;6.43;4.93;;;8.80;99.90;;;;;;5051114;28;20041;-79
2023/10/19 08:54:20;;;;;;;6.25;5.38;;;8.80;99.90;;;;;;5051412;28;20043;-78
2023/10/19 08:56:47;;;;;;;5.75;4.82;;;8.80;99.90;;;;;;5051360;28;20481;-81
2023/10/19 08:59:15;;;;;;;5.68;5.07;;;8.80;99.90;;;;;;5033557;28;20892;-80
2023/10/19 09:01:43;;;;;;;7.20;5.63;;;8.90;99.90;;;;;;5051337;28;20096;-79
2023/10/19 09:04:19;;;;;;;6.47;5.18;;;8.90;99.90;;;;;;5035121;28;20045;-79
2023/10/19 09:06:45;;;;;;;7.68;5.25;;;8.90;99.90;;;;;;5050788;28;20072;-80
2023/10/19 09:09:25;;;;;;;8.52;5.47;;;8.90;99.90;;;;;;5051004;28;20045;-80
2023/10/19 09:11:54;;;;;;;6.20;5.22;;;8.90;99.90;;;;;;5051323;28;20496;-79
2023/10/19 09:14:35;;;;;;;9.00;5.65;;;9.00;99.90;;;;;;5051369;28;20048;-80
2023/10/19 09:17:03;;;;;;;7.38;5.32;;;8.90;99.90;;;;;;5051323;28;20512;-80
2023/10/19 09:19:36;;;;;;;8.50;5.22;;;8.90;99.90;;;;;;5052180;28;20390;-79
2023/10/19 09:22:07;;;;;;;6.53;5.15;;;8.90;99.90;;;;;;5051023;28;20044;-80
2023/10/19 09:24:34;;;;;;;7.85;5.65;;;9.00;99.90;;;;;;5051057;28;20392;-81
2023/10/19 09:26:59;;;;;;;9.23;5.75;;;9.00;99.90;;;;;;5034320;28;20047;-78
2023/10/19 09:29:25;;;;;;;7.50;5.50;;;9.00;99.90;;;;;;5050757;28;20120;-81
2023/10/19 09:31:54;;;;;;;6.82;5.18;;;9.00;99.90;;;;;;5034473;28;20095;-81
2023/10/19 09:34:21;;;;;;;7.38;5.45;;;9.00;99.90;;;;;;5051073;28;20170;-80
2023/10/19 09:36:47;;;;;;;8.10;5.90;;;9.00;99.90;;;;;;5051089;28;20123;-80
2023/10/19 09:39:13;;;;;;;7.50;5.93;;;9.00;99.90;;;;;;5050398;28;20124;-79
2023/10/19 09:41:40;;;;;;;7.85;5.95;;;9.00;99.90;;;;;;5050898;28;20045;-79
2023/10/19 09:44:10;;;;;;;7.32;6.03;;;9.10;99.90;;;;;;5050897;28;20052;-80
2023/10/19 09:46:39;;;;;;;8.00;5.97;;;9.10;99.90;;;;;;5050828;28;20059;-82
2023/10/19 09:49:06;;;;;;;7.07;5.88;;;9.10;99.90;;;;;;5050427;28;20520;-81
2023/10/19 09:51:33;;;;;;;7.40;5.88;;;9.10;99.90;;;;;;5051412;28;20044;-80
2023/10/19 09:54:14;;;;;;;8.05;6.15;;;9.10;99.90;;;;;;5050896;28;20336;-81
2023/10/19 09:56:46;;;;;;;7.25;5.80;;;9.20;99.90;;;;;;5051423;28;20139;-80
2023/10/19 09:59:37;;;;;;;8.20;6.10;;;9.20;99.90;;;;;;5050883;28;20121;-79
2023/10/19 10:02:14;;;;;;;8.90;6.57;;;9.20;99.90;;;;;;5050964;28;20453;-80
2023/10/19 10:04:41;;;;;;;12.90;6.47;;;9.20;99.90;;;;;;5050902;28;20451;-80
2023/10/19 10:07:09;;;;;;;8.88;6.35;;;9.20;99.90;;;;;;5050949;28;20095;-81
2023/10/19 10:09:43;;;;;;;8.25;6.22;;;9.30;99.90;;;;;;5052459;28;20091;-81
2023/10/19 10:12:26;;;;;;;7.68;5.82;;;9.30;99.90;;;;;;5054479;28;20052;-80
2023/10/19 10:15:09;;;;;;;7.90;5.80;;;9.20;99.90;;;;;;5054919;28;20090;-79
2023/10/19 10:17:37;;;;;;;9.10;6.05;;;9.20;99.90;;;;;;5054257;28;20041;-80
2023/10/19 10:20:15;;;;;;;8.57;6.30;;;9.20;99.90;;;;;;5052869;28;20162;-81
2023/10/19 10:22:43;;;;;;;8.52;6.22;;;9.20;99.90;;;;;;5054440;28;20094;-80
2023/10/19 10:25:29;;;;;;;6.68;5.95;;;9.20;99.90;;;;;;5054074;28;20041;-79
2023/10/19 10:27:55;;;;;;;8.00;5.85;;;9.30;99.90;;;;;;5052431;28;20044;-80
2023/10/19 10:30:21;;;;;;;9.45;5.80;;;9.30;99.90;;;;;;5053458;28;20412;-81
2023/10/19 10:32:50;;;;;;;11.13;6.78;;;9.30;99.90;;;;;;5053993;28;20053;-81
2023/10/19 10:35:41;;;;;;;9.65;6.18;;;9.30;99.90;;;;;;5054296;28;20041;-79
2023/10/19 10:38:14;;;;;;;8.25;6.50;;;9.30;99.90;;;;;;5054146;28;20047;-79
2023/10/19 10:40:50;;;;;;;10.07;6.32;;;9.30;99.90;;;;;;5037088;28;20049;-79
2023/10/19 10:43:17;;;;;;;9.45;6.43;;;9.30;99.90;;;;;;5054129;28;20095;-79
2023/10/19 10:45:43;;;;;;;8.82;6.55;;;9.30;99.90;;;;;;5054313;28;20409;-81
2023/10/19 10:48:17;;;;;;;10.13;6.65;;;9.40;99.90;;;;;;5054567;28;20404;-80
2023/10/19 10:50:43;;;;;;;7.60;6.13;;;9.40;99.90;;;;;;5054370;28;20109;-80
2023/10/19 10:53:15;;;;;;;9.10;6.93;;;9.40;99.90;;;;;;5053644;28;20045;-80
2023/10/19 10:55:41;;;;;;;9.13;6.15;;;9.40;99.90;;;;;;5056339;28;20037;-81
2023/10/19 10:58:06;;;;;;;9.63;7.05;;;9.40;99.90;;;;;;5053414;28;20420;-80
2023/10/19 11:00:34;;;;;;;8.23;6.80;;;9.40;99.90;;;;;;5052646;28;20041;-81
2023/10/19 11:03:10;;;;;;;9.95;6.72;;;9.40;99.90;;;;;;5053048;28;20069;-80
2023/10/19 11:05:37;;;;;;;8.13;6.63;;;9.40;99.90;;;;;;5053399;28;20037;-81
2023/10/19 11:08:20;;;;;;;9.95;6.85;;;9.40;99.90;;;;;;5053342;28;20049;-80
2023/10/19 11:10:47;;;;;;;10.00;6.65;;;9.40;99.90;;;;;;5036278;28;20393;-80
2023/10/19 11:13:14;;;;;;;9.52;6.80;;;9.50;99.90;;;;;;5053001;28;20084;-81
2023/10/19 11:15:49;;;;;;;10.98;7.30;;;9.50;99.90;;;;;;5035400;28;20041;-78
2023/10/19 11:18:35;;;;;;;9.57;6.95;;;9.50;99.90;;;;;;5036064;28;20033;-80
2023/10/19 11:21:05;;;;;;;8.88;7.43;;;9.50;99.90;;;;;;5052457;28;20041;-80
2023/10/19 11:23:42;;;;;;;10.13;7.78;;;9.50;99.90;;;;;;5055068;28;20102;-80
2023/10/19 11:26:09;;;;;;;9.27;7.60;;;9.50;99.90;;;;;;5052949;28;20568;-80
2023/10/19 11:28:42;;;;;;;9.95;7.68;;;9.50;99.90;;;;;;5053058;28;20045;-81
2023/10/19 11:31:27;;;;;;;9.05;6.93;;;9.50;99.90;;;;;;5052568;28;20095;-81
2023/10/19 11:33:57;;;;;;;9.23;7.28;;;9.50;99.90;;;;;;5052541;28;20128;-78
2023/10/19 11:36:24;;;;;;;10.00;7.78;;;9.50;99.90;;;;;;5052788;28;20040;-81
2023/10/19 11:38:52;;;;;;;9.80;7.53;;;9.40;99.90;;;;;;5052703;28;20088;-79
2023/10/19 11:41:17;;;;;;;11.45;6.97;;;9.50;99.90;;;;;;5052728;28;20071;-79
2023/10/19 11:43:47;;;;;;;9.60;7.38;;;9.50;99.90;;;;;;5052574;28;20041;-79
2023/10/19 11:46:24;;;;;;;11.55;7.85;;;9.50;99.90;;;;;;5052810;28;20037;-80
2023/10/19 11:48:50;;;;;;;9.50;7.57;;;9.50;99.90;;;;;;5036045;28;20093;-80
2023/10/19 11:51:16;;;;;;;12.63;7.45;;;9.50;99.90;;;;;;5052204;28;20041;-79
2023/10/19 11:53:42;;;;;;;10.52;7.93;;;9.50;99.90;;;;;;5052577;28;20044;-81
2023/10/19 11:56:09;;;;;;;11.05;7.07;;;9.50;99.90;;;;;;5052172;28;20542;-79
2023/10/19 11:58:37;;;;;;;9.38;7.03;;;9.50;99.90;;;;;;5036056;28;20044;-79
2023/10/19 12:01:05;;;;;;;9.02;7.25;;;9.50;99.90;;;;;;5052631;28;20459;-81
2023/10/19 12:03:31;;;;;;;8.98;7.78;;;9.60;99.90;;;;;;5052159;28;20064;-80
2023/10/19 12:05:57;;;;;;;10.77;7.30;;;9.60;99.90;;;;;;5052705;28;20387;-79
2023/10/19 12:08:23;;;;;;;9.52;8.02;;;9.60;99.90;;;;;;5052311;28;20382;-79
2023/10/19 12:10:50;;;;;;;8.77;7.35;;;9.70;99.90;;;;;;5052054;28;20049;-79
2023/10/19 12:13:16;;;;;;;9.00;7.85;;;9.70;99.90;;;;;;5052095;28;20032;-79
2023/10/19 12:15:51;;;;;;;10.30;7.53;;;9.80;99.90;;;;;;5052839;28;20041;-80
2023/10/19 12:18:17;;;;;;;10.32;7.78;;;9.80;99.90;;;;;;5052936;28;20052;-80
2023/10/19 12:20:45;;;;;;;12.55;8.95;;;9.80;99.90;;;;;;5036270;28;20040;-81
2023/10/19 12:23:11;;;;;;;13.45;9.30;;;9.80;99.90;;;;;;5037862;28;20372;-80
2023/10/19 12:25:38;;;;;;;12.75;9.38;;;9.70;99.90;;;;;;5052591;28;20060;-80
2023/10/19 12:28:04;;;;;;;12.80;10.23;;;9.70;99.90;;;;;;5052901;28;20048;-79
2023/10/19 12:30:36;;;;;;;12.00;10.70;;;9.70;99.90;;;;;;5051403;28;20041;-79
2023/10/19 12:33:07;;;;;;;14.20;10.30;;;9.70;99.90;;;;;;5051267;28;20412;-79
2023/10/19 12:35:49;;;;;;;14.82;10.30;;;9.70;99.90;;;;;;5052323;28;20093;-80
2023/10/19 12:38:16;;;;;;;11.25;9.43;;;9.70;99.90;;;;;;5051860;28;20056;-79
2023/10/19 12:40:46;;;;;;;15.77;9.77;;;9.70;99.90;;;;;;5051105;28;20037;-80
2023/10/19 12:43:13;;;;;;;13.35;9.70;;;9.70;99.90;;;;;;5051637;28;20055;-81
2023/10/19 12:45:39;;;;;;;15.13;9.30;;;9.60;99.90;;;;;;5051614;28;20451;-80
2023/10/19 12:48:06;;;;;;;12.50;9.30;;;9.60;99.90;;;;;;5051123;28;20493;-79
2023/10/19 12:50:34;;;;;;;9.50;8.48;;;9.60;99.90;;;;;;5051009;28;20416;-78
2023/10/19 12:53:00;;;;;;;12.43;9.38;;;9.70;99.90;;;;;;5051933;28;20086;-81
2023/10/19 12:55:27;;;;;;;13.50;9.70;;;9.70;99.90;;;;;;5051322;28;20047;-79
2023/10/19 12:57:53;;;;;;;11.02;8.25;;;9.70;99.90;;;;;;5051340;28;20036;-79
2023/10/19 13:00:29;;;;;;;12.55;9.00;;;9.60;99.90;;;;;;5051168;28;20136;-79
2023/10/19 13:03:00;;;;;;;15.30;9.88;;;9.60;99.90;;;;;;5051428;28;20072;-80
2023/10/19 13:05:27;;;;;;;12.18;9.73;;;9.60;99.90;;;;;;5051289;28;20049;-79
2023/10/19 13:07:53;;;;;;;12.68;9.20;;;9.60;99.90;;;;;;5051754;28;20472;-79
2023/10/19 13:10:19;;;;;;;13.40;10.25;;;9.60;99.90;;;;;;5051594;28;20045;-79
2023/10/19 13:12:44;;;;;;;14.80;11.48;;;9.60;99.90;;;;;;5052106;28;20044;-78
2023/10/19 13:15:13;;;;;;;14.38;12.38;;;9.60;99.90;;;;;;5051852;28;20033;-78
2023/10/19 13:17:39;;;;;;;12.88;11.43;;;9.60;99.90;;;;;;5050975;28;20037;-79
2023/10/19 13:20:16;;;;;;;14.98;13.38;;;9.60;99.90;;;;;;5050605;28;20045;-80